Time;durP1;ratioP1;P1;durP2;ratioP2;P2;SDS_P1;SDS_P2;PMS_P1;PMS_P2;Temp;Humidity;BMP_temperature;BMP_pressure;BME280_temperature;BME280_humidity;BME280_pressure;Samples;Min_cycle;Max_cycle;Signal;HPM_P1;HPM_P2
2022/06/25 04:22:34;;;;;;;9.25;5.00;;;;;;;13.72;100.00;100010.56;5109285;27;20361;-77
2022/06/25 04:25:03;;;;;;;9.20;5.07;;;;;;;13.74;100.00;100008.50;5108295;28;20362;-77
2022/06/25 04:30:13;;;;;;;6.85;4.15;;;;;;;13.84;100.00;100015.16;5108183;28;20032;-77
2022/06/25 04:32:42;;;;;;;8.18;3.97;;;;;;;13.93;100.00;100014.97;5108146;28;20060;-77
2022/06/25 04:35:15;;;;;;;6.32;4.10;;;;;;;13.89;100.00;100009.19;5107978;28;20141;-77
2022/06/25 04:37:43;;;;;;;6.63;4.10;;;;;;;13.98;100.00;100017.88;5091230;28;20038;-77
2022/06/25 04:40:10;;;;;;;4.68;3.97;;;;;;;14.04;100.00;100014.38;5107818;28;20032;-74
2022/06/25 04:42:37;;;;;;;5.50;3.78;;;;;;;14.09;100.00;100017.31;5107528;28;20039;-75
2022/06/25 04:45:02;;;;;;;5.55;4.00;;;;;;;14.15;100.00;100021.84;5090876;28;20396;-75
2022/06/25 04:47:33;;;;;;;5.25;3.80;;;;;;;14.28;100.00;100013.84;5107819;28;20422;-75
2022/06/25 04:50:19;;;;;;;6.30;3.90;;;;;;;14.39;100.00;100017.75;5109003;28;20473;-75
2022/06/25 04:52:44;;;;;;;5.50;3.83;;;;;;;14.48;100.00;100027.31;5107232;28;20144;-75
2022/06/25 04:55:10;;;;;;;8.57;4.03;;;;;;;14.60;100.00;100027.50;5107684;28;20523;-77
2022/06/25 04:57:36;;;;;;;8.00;4.38;;;;;;;14.68;100.00;100027.34;5107582;28;20031;-77
2022/06/25 05:00:21;;;;;;;6.60;4.43;;;;;;;14.76;100.00;100020.94;5108582;28;20051;-77
2022/06/25 05:02:47;;;;;;;5.90;3.72;;;;;;;14.84;100.00;100021.56;5090312;28;20031;-77
2022/06/25 05:05:14;;;;;;;6.20;3.75;;;;;;;14.90;100.00;100022.59;5107495;28;20058;-77
2022/06/25 05:07:40;;;;;;;8.10;4.25;;;;;;;14.98;100.00;100029.59;5107439;28;20059;-77
2022/06/25 05:10:06;;;;;;;7.18;4.35;;;;;;;15.03;100.00;100025.25;5107423;28;20075;-77
2022/06/25 05:15:15;;;;;;;6.38;4.05;;;;;;;15.21;100.00;100030.00;5107164;28;20150;-77
2022/06/25 05:17:41;;;;;;;10.30;4.15;;;;;;;15.28;100.00;100027.31;5108627;28;20044;-77
2022/06/25 05:20:09;;;;;;;5.90;3.83;;;;;;;15.38;100.00;100023.13;5107137;28;20105;-77
2022/06/25 05:22:34;;;;;;;5.33;4.20;;;;;;;15.43;100.00;100020.66;5106804;28;20035;-75
2022/06/25 05:25:00;;;;;;;7.60;4.00;;;;;;;15.47;100.00;100019.22;5107093;28;20368;-75
2022/06/25 05:27:27;;;;;;;4.05;3.05;;;;;;;15.54;100.00;100023.75;5090141;28;20040;-75
2022/06/25 05:29:53;;;;;;;4.78;2.80;;;;;;;15.57;100.00;100023.31;5106786;28;20031;-75
2022/06/25 05:32:19;;;;;;;3.15;2.70;;;;;;;15.66;100.00;100019.41;5102015;28;20031;-75
2022/06/25 05:34:45;;;;;;;4.88;2.97;;;;;;;15.79;100.00;100023.91;5093251;28;20036;-75
2022/06/25 05:37:11;;;;;;;4.95;3.33;;;;;;;15.80;100.00;100023.69;5093177;28;20036;-75
2022/06/25 05:39:38;;;;;;;4.28;3.13;;;;;;;15.87;100.00;100027.16;5094559;28;20047;-75
2022/06/25 05:42:04;;;;;;;3.28;2.65;;;;;;;15.93;100.00;100017.44;5075883;28;20040;-77
2022/06/25 05:44:29;;;;;;;5.35;2.53;;;;;;;16.09;100.00;100029.53;5093286;28;20164;-77
2022/06/25 05:46:55;;;;;;;4.10;2.80;;;;;;;16.17;100.00;100030.13;5094334;28;20040;-77
2022/06/25 05:49:20;;;;;;;6.75;2.35;;;;;;;16.20;100.00;100035.06;5094362;28;20044;-77
2022/06/25 05:51:46;;;;;;;6.43;2.78;;;;;;;16.31;100.00;100043.50;5092819;28;20086;-77
2022/06/25 05:54:12;;;;;;;4.13;2.88;;;;;;;16.38;100.00;100039.72;5094100;28;20097;-75
2022/06/25 05:56:37;;;;;;;5.57;3.10;;;;;;;16.47;100.00;100046.47;5093992;28;20557;-75
2022/06/25 05:59:02;;;;;;;4.30;2.97;;;;;;;16.57;100.00;100050.56;5094146;28;20044;-76
2022/06/25 06:01:28;;;;;;;4.25;2.65;;;;;;;16.61;100.00;100043.69;5093751;28;20040;-75
2022/06/25 06:03:53;;;;;;;3.33;2.50;;;;;;;16.72;100.00;100043.88;5093879;28;20048;-75
2022/06/25 06:06:19;;;;;;;7.72;2.45;;;;;;;16.80;100.00;100048.16;5093868;28;20036;-75
2022/06/25 06:08:44;;;;;;;5.15;2.70;;;;;;;16.87;100.00;100058.84;5093976;28;20039;-75
2022/06/25 06:11:09;;;;;;;6.30;2.60;;;;;;;16.89;100.00;100046.84;5092612;28;20024;-75
2022/06/25 06:13:35;;;;;;;3.13;2.47;;;;;;;16.95;100.00;100050.50;5093504;28;20528;-76
2022/06/25 06:16:00;;;;;;;4.28;2.53;;;;;;;16.98;100.00;100047.41;5093514;28;20040;-76
2022/06/25 06:18:26;;;;;;;4.80;2.50;;;;;;;16.99;100.00;100040.97;5093745;28;20040;-76
2022/06/25 06:20:51;;;;;;;8.65;4.72;;;;;;;17.08;100.00;100051.25;5093523;28;20036;-76
2022/06/25 06:23:16;;;;;;;3.88;2.72;;;;;;;17.16;100.00;100049.31;5093679;28;20413;-78
2022/06/25 06:25:42;;;;;;;4.80;3.40;;;;;;;17.32;100.00;100046.03;5096434;28;20067;-78
2022/06/25 06:28:07;;;;;;;7.13;2.33;;;;;;;17.34;100.00;100047.50;5096743;28;20071;-78
2022/06/25 06:30:33;;;;;;;5.47;3.25;;;;;;;17.53;100.00;100055.56;5096889;28;20048;-79
2022/06/25 06:32:58;;;;;;;2.90;2.20;;;;;;;17.59;100.00;100052.78;5096886;28;20038;-79
2022/06/25 06:35:24;;;;;;;4.75;2.40;;;;;;;17.76;100.00;100063.84;5096214;28;20071;-76
2022/06/25 06:37:49;;;;;;;4.85;2.50;;;;;;;17.84;100.00;100057.31;5096508;28;20067;-79
2022/06/25 06:40:15;;;;;;;4.25;2.53;;;;;;;18.03;100.00;100064.34;5098750;28;20127;-77
2022/06/25 06:42:41;;;;;;;2.95;2.05;;;;;;;18.22;100.00;100061.63;5095198;28;20035;-76
2022/06/25 06:45:07;;;;;;;5.60;2.67;;;;;;;18.25;100.00;100061.16;5093110;28;20403;-76
2022/06/25 06:47:32;;;;;;;2.72;2.05;;;;;;;18.33;100.00;100059.00;5093190;28;20040;-77
2022/06/25 06:49:58;;;;;;;4.13;2.30;;;;;;;18.52;98.97;100062.47;5091839;28;20134;-76
2022/06/25 06:52:26;;;;;;;3.10;2.40;;;;;;;18.59;99.23;100062.38;5092971;28;20123;-76
2022/06/25 06:54:51;;;;;;;6.75;2.58;;;;;;;18.62;100.00;100062.72;5093138;28;20032;-76
2022/06/25 06:57:17;;;;;;;4.35;2.00;;;;;;;18.73;93.74;100058.44;5092976;28;20038;-77
2022/06/25 06:59:43;;;;;;;2.83;1.90;;;;;;;18.72;97.01;100056.81;5093120;28;20181;-76
2022/06/25 07:02:08;;;;;;;4.15;1.90;;;;;;;18.87;95.43;100051.78;5092651;28;20501;-77
2022/06/25 07:04:34;;;;;;;2.22;2.00;;;;;;;18.92;94.97;100051.09;5093070;28;20119;-76
2022/06/25 07:06:59;;;;;;;4.53;2.30;;;;;;;19.02;90.37;100040.53;5091711;28;20032;-76
2022/06/25 07:09:25;;;;;;;4.25;2.08;;;;;;;19.07;92.66;100056.84;5093090;28;20062;-76
2022/06/25 07:11:51;;;;;;;3.17;1.85;;;;;;;19.09;93.86;100045.81;5092676;28;20028;-79
2022/06/25 07:14:16;;;;;;;4.30;1.98;;;;;;;19.19;94.31;100046.06;5091526;28;20044;-76
2022/06/25 07:16:42;;;;;;;3.78;2.08;;;;;;;19.23;95.14;100045.38;5092615;28;20028;-76
2022/06/25 07:19:07;;;;;;;4.15;2.25;;;;;;;19.33;94.46;100052.88;5092750;28;20443;-76
2022/06/25 07:21:33;;;;;;;3.55;2.17;;;;;;;19.46;94.25;100043.72;5092270;28;20130;-76
2022/06/25 07:23:58;;;;;;;2.90;1.90;;;;;;;19.58;92.50;100047.25;5093740;28;20035;-78
2022/06/25 07:26:24;;;;;;;4.90;2.08;;;;;;;19.65;90.06;100053.34;5095829;28;20031;-76
2022/06/25 07:28:53;;;;;;;3.38;2.30;;;;;;;19.72;92.11;100045.94;5092503;28;20040;-77
2022/06/25 07:31:19;;;;;;;6.05;2.28;;;;;;;19.76;93.88;100041.72;5092527;28;20500;-76
2022/06/25 07:33:45;;;;;;;3.15;2.22;;;;;;;19.86;93.89;100040.25;5093510;28;20043;-77
2022/06/25 07:36:10;;;;;;;3.65;2.05;;;;;;;19.98;93.68;100044.59;5092506;28;20119;-76
2022/06/25 07:38:36;;;;;;;2.80;1.92;;;;;;;20.13;90.04;100032.41;5092513;28;20039;-76
2022/06/25 07:41:02;;;;;;;2.10;1.67;;;;;;;20.17;87.96;100034.41;5092037;28;20471;-76
2022/06/25 07:43:27;;;;;;;4.18;1.70;;;;;;;20.24;88.15;100036.97;5092033;28;20036;-75
2022/06/25 07:45:54;;;;;;;4.55;2.10;;;;;;;20.45;85.62;100030.06;5092084;28;20101;-76
2022/06/25 07:48:19;;;;;;;3.17;1.58;;;;;;;20.53;83.38;100029.69;5092216;28;20176;-75
2022/06/25 07:53:29;;;;;;;2.50;1.90;;;;;;;20.83;83.08;100021.25;5091980;28;20047;-76
2022/06/25 07:55:55;;;;;;;3.35;1.73;;;;;;;20.90;82.41;100021.91;5091773;28;20024;-74
2022/06/25 07:58:20;;;;;;;2.80;1.77;;;;;;;20.93;82.12;100017.88;5092005;28;20048;-75
2022/06/25 08:00:45;;;;;;;2.78;1.70;;;;;;;21.01;82.83;100017.50;5091915;28;20048;-75
2022/06/25 08:03:11;;;;;;;2.40;1.80;;;;;;;21.08;83.48;100012.72;5091737;28;20110;-76
2022/06/25 08:05:37;;;;;;;2.95;1.60;;;;;;;21.07;79.51;100001.06;5094173;28;20435;-79
2022/06/25 08:08:02;;;;;;;7.22;3.35;;;;;;;21.26;81.41;100011.66;5096992;28;20085;-80
2022/06/25 08:10:28;;;;;;;4.03;2.20;;;;;;;21.42;80.15;100004.56;5099805;28;20032;-79
2022/06/25 08:12:53;;;;;;;2.10;1.60;;;;;;;21.50;77.49;100004.13;5094849;28;20095;-79
2022/06/25 08:15:20;;;;;;;3.40;2.40;;;;;;;21.57;78.26;99999.34;5097441;28;20044;-81
2022/06/25 08:17:46;;;;;;;1.70;1.55;;;;;;;21.73;78.90;100011.22;5097364;28;20024;-80
2022/06/25 08:20:11;;;;;;;2.00;1.60;;;;;;;21.87;79.28;100004.34;5095034;28;20047;-79
2022/06/25 08:22:37;;;;;;;3.67;2.00;;;;;;;21.98;76.68;100010.72;5095674;28;20036;-80
2022/06/25 08:25:04;;;;;;;3.72;1.60;;;;;;;22.03;73.93;100005.31;5099021;28;20043;-79
2022/06/25 08:27:31;;;;;;;2.30;1.80;;;;;;;22.20;73.92;100006.09;5096735;28;20473;-79
2022/06/25 08:29:58;;;;;;;6.32;5.07;;;;;;;22.29;72.78;100003.72;5094489;28;20054;-79
2022/06/25 08:32:23;;;;;;;4.32;2.40;;;;;;;22.41;74.16;100005.22;5094502;28;20044;-79
2022/06/25 08:34:48;;;;;;;4.72;1.85;;;;;;;22.52;72.04;100006.13;5093467;28;20051;-78
2022/06/25 08:37:14;;;;;;;2.22;1.50;;;;;;;22.80;71.62;99990.63;5093000;28;20036;-78
2022/06/25 08:39:39;;;;;;;4.43;1.88;;;;;;;22.82;65.72;99997.44;5092443;28;20122;-79
2022/06/25 08:42:05;;;;;;;2.65;1.58;;;;;;;22.95;65.29;99998.91;5094739;28;20067;-83
2022/06/25 08:44:31;;;;;;;3.35;1.88;;;;;;;22.94;64.14;99995.38;5097858;28;20035;-82
2022/06/25 08:46:58;;;;;;;1.80;1.35;;;;;;;22.88;64.17;100007.25;5095909;28;20051;-84
2022/06/25 08:49:24;;;;;;;2.42;1.40;;;;;;;23.13;66.35;100003.09;5094945;28;20114;-85
2022/06/25 08:51:52;;;;;;;2.67;1.42;;;;;;;23.43;63.46;99992.44;5094023;28;20036;-84
2022/06/25 08:54:19;;;;;;;2.42;1.67;;;;;;;23.35;64.43;100008.41;5096042;28;20040;-85
2022/06/25 08:56:46;;;;;;;3.75;1.75;;;;;;;23.37;64.35;99998.91;5093928;28;20130;-84
2022/06/25 08:59:12;;;;;;;3.10;1.87;;;;;;;23.27;65.11;99998.84;5093446;28;20036;-84
2022/06/25 09:01:37;;;;;;;5.80;1.95;;;;;;;23.25;62.79;99995.56;5092763;28;20074;-85
2022/06/25 09:04:03;;;;;;;3.42;1.92;;;;;;;23.60;65.40;99996.84;5093854;28;20042;-85
2022/06/25 09:06:29;;;;;;;2.70;1.40;;;;;;;23.81;65.52;99993.16;5094197;28;20067;-84
2022/06/25 09:09:15;;;;;;;2.65;1.50;;;;;;;23.78;66.14;99986.34;5097354;28;20081;-85
2022/06/25 09:12:10;;;;;;;3.28;1.60;;;;;;;24.21;65.36;99995.19;5099038;28;20153;-84
2022/06/25 09:14:37;;;;;;;2.05;1.60;;;;;;;24.22;61.22;99988.66;5097806;28;20048;-84
2022/06/25 09:17:06;;;;;;;3.25;1.60;;;;;;;24.43;62.78;99994.16;5097267;28;20497;-85
2022/06/25 09:19:36;;;;;;;4.88;1.65;;;;;;;24.46;60.78;99993.63;5097702;28;20043;-84
2022/06/25 09:22:08;;;;;;;2.67;1.60;;;;;;;24.61;59.23;99986.28;5095895;28;20036;-82
2022/06/25 09:24:51;;;;;;;2.60;1.55;;;;;;;24.75;60.51;99980.28;5096174;28;20556;-83
2022/06/25 09:27:33;;;;;;;2.80;1.67;;;;;;;24.89;57.36;99976.72;5096330;28;20036;-85
2022/06/25 09:30:08;;;;;;;2.10;1.45;;;;;;;25.24;59.17;99976.97;5096412;28;20067;-84
2022/06/25 09:32:47;;;;;;;4.18;1.30;;;;;;;25.24;57.65;99966.06;5096245;28;20082;-84
2022/06/25 09:35:14;;;;;;;2.45;1.40;;;;;;;25.45;59.32;99964.91;5097473;28;20044;-85
2022/06/25 09:37:40;;;;;;;1.60;1.48;;;;;;;25.69;56.15;99959.59;5099434;28;20107;-86
2022/06/25 09:40:09;;;;;;;3.53;1.63;;;;;;;25.74;54.14;99956.09;5096267;28;20071;-86
2022/06/25 09:42:38;;;;;;;2.50;1.40;;;;;;;25.96;55.38;99957.34;5096575;28;20079;-85
2022/06/25 09:45:07;;;;;;;2.63;1.50;;;;;;;26.17;54.02;99951.75;5097762;28;20035;-85
2022/06/25 09:47:38;;;;;;;2.05;1.30;;;;;;;26.20;51.84;99953.91;5096625;28;20102;-84
2022/06/25 09:50:12;;;;;;;2.05;1.20;;;;;;;26.09;53.17;99944.97;5097026;28;20085;-84
2022/06/25 09:52:48;;;;;;;1.58;1.30;;;;;;;26.42;54.17;99958.97;5096759;28;20047;-85
2022/06/25 09:55:14;;;;;;;1.75;1.35;;;;;;;26.15;52.22;99951.22;5098937;28;20050;-84
2022/06/25 09:57:41;;;;;;;1.92;1.25;;;;;;;26.56;53.29;99951.75;5098074;28;20044;-84
2022/06/25 10:00:07;;;;;;;1.98;1.13;;;;;;;26.61;53.47;99948.97;5097039;28;20051;-83
2022/06/25 10:02:36;;;;;;;1.75;1.50;;;;;;;27.04;51.81;99946.38;5097140;28;20039;-84
2022/06/25 10:05:03;;;;;;;2.30;1.20;;;;;;;26.62;48.65;99947.06;5095720;28;20043;-81
2022/06/25 10:10:19;;;;;;;1.45;1.20;;;;;;;26.59;51.59;99942.97;5097906;28;20465;-84
2022/06/25 10:12:49;;;;;;;2.45;1.35;;;;;;;26.79;50.07;99947.44;5097940;28;20043;-83
2022/06/25 10:15:17;;;;;;;2.85;1.20;;;;;;;27.08;52.13;99943.91;5097507;28;20040;-86
2022/06/25 10:17:48;;;;;;;3.22;1.45;;;;;;;27.56;51.04;99944.72;5096670;28;20419;-83
2022/06/25 10:20:16;;;;;;;2.28;1.25;;;;;;;27.62;49.75;99940.81;5098699;28;20043;-83
2022/06/25 10:22:43;;;;;;;1.58;1.20;;;;;;;27.70;48.54;99939.34;5099650;28;20118;-83
2022/06/25 10:25:14;;;;;;;4.13;1.38;;;;;;;28.20;47.69;99943.28;5099902;28;20042;-81
2022/06/25 10:27:46;;;;;;;2.72;1.27;;;;;;;28.46;47.23;99934.69;5098506;28;20111;-82
2022/06/25 10:30:14;;;;;;;3.90;1.35;;;;;;;28.90;48.89;99932.28;5098585;28;20092;-82
2022/06/25 10:32:45;;;;;;;2.25;1.20;;;;;;;28.93;45.86;99928.94;5098139;28;20036;-84
2022/06/25 10:35:35;;;;;;;3.47;1.42;;;;;;;28.96;46.60;99927.56;5098706;28;20031;-83
2022/06/25 10:38:08;;;;;;;1.30;1.20;;;;;;;29.24;45.72;99924.81;5097397;28;20028;-84
2022/06/25 10:40:46;;;;;;;1.73;1.30;;;;;;;28.73;47.68;99920.25;5096817;28;20071;-83
2022/06/25 10:43:36;;;;;;;6.60;4.97;;;;;;;28.09;46.04;99931.66;5098699;28;20040;-82
2022/06/25 10:46:31;;;;;;;3.85;2.45;;;;;;;28.33;45.76;99920.66;5099219;28;20039;-80
2022/06/25 10:49:06;;;;;;;3.00;1.20;;;;;;;28.15;49.35;99918.72;5098574;28;20040;-83
2022/06/25 10:51:38;;;;;;;1.45;1.25;;;;;;;28.74;46.05;99919.94;5097761;28;20036;-83
2022/06/25 10:54:06;;;;;;;1.67;1.20;;;;;;;28.47;46.44;99906.19;5097156;28;20095;-81
2022/06/25 10:56:52;;;;;;;1.83;1.33;;;;;;;29.39;44.28;99895.13;5097672;28;20174;-84
2022/06/25 10:59:34;;;;;;;1.30;1.00;;;;;;;29.37;43.35;99910.28;5102426;28;20123;-83
2022/06/25 11:02:02;;;;;;;3.17;1.13;;;;;;;29.31;43.15;99895.84;5099566;28;20046;-82
2022/06/25 11:04:28;;;;;;;1.75;1.58;;;;;;;29.62;42.79;99890.56;5097702;28;20454;-84
2022/06/25 11:07:13;;;;;;;2.63;1.67;;;;;;;29.55;42.09;99889.38;5096422;28;20132;-83
2022/06/25 11:09:40;;;;;;;2.13;1.30;;;;;;;29.85;40.97;99888.66;5099117;28;20061;-83
2022/06/25 11:12:07;;;;;;;1.95;1.30;;;;;;;30.45;41.15;99888.34;5095840;28;20043;-83
2022/06/25 11:14:34;;;;;;;2.70;1.70;;;;;;;30.92;39.33;99877.78;5095834;28;20067;-84
2022/06/25 11:17:08;;;;;;;2.53;1.50;;;;;;;31.18;39.76;99874.31;5098582;28;20381;-82
2022/06/25 11:19:34;;;;;;;2.90;1.50;;;;;;;30.86;39.97;99876.28;5095710;28;20028;-83
2022/06/25 11:22:03;;;;;;;3.60;3.28;;;;;;;30.45;40.55;99880.09;5095002;28;20417;-82
2022/06/25 11:24:30;;;;;;;1.63;1.30;;;;;;;29.76;41.94;99885.03;5095290;28;20044;-83
2022/06/25 11:29:49;;;;;;;1.33;1.20;;;;;;;29.18;42.57;99880.22;5107554;28;19959;-83
2022/06/25 11:32:23;;;;;;;2.90;1.90;;;;;;;29.28;43.80;99874.53;5112797;28;20059;-82
2022/06/25 11:34:56;;;;;;;1.10;1.00;;;;;;;29.98;39.92;99879.56;5111280;28;20036;-81
2022/06/25 11:37:23;;;;;;;4.07;1.40;;;;;;;30.11;39.96;99874.34;5097282;28;20044;-81
2022/06/25 11:39:49;;;;;;;5.00;1.57;;;;;;;29.69;40.86;99879.16;5094592;28;20081;-81
2022/06/25 11:42:15;;;;;;;3.55;1.80;;;;;;;29.69;41.94;99879.97;5093686;28;20032;-81
2022/06/25 11:44:48;;;;;;;1.75;1.30;;;;;;;29.46;40.63;99870.84;5094115;28;20493;-82
2022/06/25 11:47:25;;;;;;;1.33;1.10;;;;;;;29.49;42.74;99880.41;5094621;28;20055;-83
2022/06/25 11:49:52;;;;;;;3.53;1.35;;;;;;;29.58;41.88;99867.59;5094654;28;20397;-82
2022/06/25 11:52:19;;;;;;;4.22;1.40;;;;;;;29.99;41.43;99877.63;5093752;28;20051;-82
2022/06/25 11:54:46;;;;;;;1.80;1.42;;;;;;;30.14;42.04;99876.50;5093543;28;20036;-82
2022/06/25 11:57:21;;;;;;;2.20;1.25;;;;;;;30.17;41.81;99875.84;5093113;28;20110;-82
2022/06/25 11:59:49;;;;;;;1.00;0.90;;;;;;;30.11;40.78;99871.63;5094074;28;20043;-83
2022/06/25 12:02:15;;;;;;;1.98;1.30;;;;;;;30.08;39.72;99863.97;5093272;28;20131;-80
2022/06/25 12:04:47;;;;;;;2.67;1.10;;;;;;;29.73;40.47;99856.28;5093220;28;20485;-81
2022/06/25 12:07:18;;;;;;;1.17;1.08;;;;;;;30.07;39.05;99849.44;5094172;28;20058;-83
2022/06/25 12:09:44;;;;;;;2.20;1.42;;;;;;;31.13;40.42;99849.69;5100572;28;20074;-84
2022/06/25 12:12:09;;;;;;;1.77;1.10;;;;;;;31.40;38.74;99854.94;5100364;28;20016;-84
2022/06/25 12:14:36;;;;;;;2.55;1.33;;;;;;;30.97;38.18;99852.88;5101007;28;20185;-84
2022/06/25 12:17:05;;;;;;;1.98;1.52;;;;;;;30.34;39.58;99848.50;5100851;28;20036;-84
2022/06/25 12:19:48;;;;;;;1.30;1.20;;;;;;;30.64;38.70;99846.06;5098388;28;20040;-81
2022/06/25 12:22:20;;;;;;;1.25;1.10;;;;;;;30.14;37.09;99841.59;5097843;28;20085;-83
2022/06/25 12:24:46;;;;;;;1.60;1.30;;;;;;;30.54;37.25;99838.91;5099381;28;20040;-84
2022/06/25 12:27:12;;;;;;;1.40;1.20;;;;;;;30.16;36.59;99833.03;5101200;28;20036;-84
2022/06/25 12:29:37;;;;;;;2.67;0.95;;;;;;;31.41;36.11;99829.06;5100180;28;20113;-83
2022/06/25 12:32:03;;;;;;;1.85;1.27;;;;;;;31.74;36.01;99820.31;5099389;28;20190;-84
2022/06/25 12:34:28;;;;;;;2.00;1.20;;;;;;;32.17;35.64;99816.75;5097112;28;20044;-82
2022/06/25 12:36:55;;;;;;;2.28;1.02;;;;;;;31.68;36.66;99822.41;5094430;28;20055;-84
2022/06/25 12:39:34;;;;;;;;;;;;;;;32.17;35.10;99822.25;5094904;28;20426;-82
2022/06/25 12:42:05;;;;;;;1.42;1.10;;;;;;;32.20;35.42;99822.41;5093928;28;19972;-84
2022/06/25 12:44:36;;;;;;;1.67;1.08;;;;;;;32.04;35.25;99813.84;5100132;28;20046;-81
2022/06/25 12:47:06;;;;;;;21.38;17.75;;;;;;;31.87;36.46;99814.66;5100703;28;20134;-83
2022/06/25 12:49:39;;;;;;;8.50;6.22;;;;;;;30.91;37.27;99820.31;5080985;28;20051;-83
2022/06/25 12:52:05;;;;;;;2.65;1.63;;;;;;;29.91;39.43;99816.03;5098692;28;20072;-83
2022/06/25 12:54:48;;;;;;;2.63;1.88;;;;;;;30.38;40.65;99807.47;5099144;28;20036;-81
2022/06/25 12:57:22;;;;;;;5.32;3.95;;;;;;;30.57;39.02;99804.50;5096602;28;20043;-82
2022/06/25 12:59:48;;;;;;;1.52;1.33;;;;;;;31.40;38.35;99793.59;5096623;28;20043;-81
2022/06/25 13:02:14;;;;;;;1.15;1.10;;;;;;;32.16;36.91;99793.91;5095168;28;20104;-81
2022/06/25 13:04:40;;;;;;;2.28;1.00;;;;;;;32.89;34.45;99802.09;5100123;28;20036;-83
2022/06/25 13:07:06;;;;;;;2.08;1.88;;;;;;;33.12;33.29;99797.88;5096353;28;20117;-83
2022/06/25 13:09:31;;;;;;;1.70;1.33;;;;;;;33.09;32.93;99792.25;5097464;28;20032;-82
2022/06/25 13:11:57;;;;;;;2.33;2.10;;;;;;;33.10;34.21;99794.66;5097708;28;20147;-82
2022/06/25 13:14:23;;;;;;;1.80;1.70;;;;;;;32.88;32.57;99792.22;5097907;28;20485;-83
2022/06/25 13:16:48;;;;;;;1.40;1.30;;;;;;;32.56;34.14;99785.38;5097956;28;20040;-83
2022/06/25 13:19:13;;;;;;;2.57;1.43;;;;;;;32.24;34.46;99795.81;5097388;28;20032;-83
2022/06/25 13:21:39;;;;;;;2.87;1.10;;;;;;;31.69;36.18;99796.53;5101837;28;20098;-81
2022/06/25 13:24:04;;;;;;;2.10;0.97;;;;;;;31.64;36.76;99798.66;5104177;28;20036;-80
2022/06/25 13:26:30;;;;;;;2.10;1.20;;;;;;;30.73;37.36;99797.50;5104641;28;20038;-81
2022/06/25 13:28:55;;;;;;;1.70;1.07;;;;;;;31.17;36.03;99795.63;5104115;28;20046;-82
2022/06/25 13:31:20;;;;;;;2.08;0.88;;;;;;;31.11;37.72;99792.25;5105421;28;20036;-81
2022/06/25 13:33:46;;;;;;;2.17;1.30;;;;;;;31.37;36.83;99800.56;5101933;28;20067;-81
2022/06/25 13:36:11;;;;;;;2.30;1.20;;;;;;;30.36;38.08;99791.31;5102682;28;20036;-81
2022/06/25 13:38:37;;;;;;;2.08;1.15;;;;;;;30.14;40.11;99783.13;5105904;28;20083;-80
2022/06/25 13:41:05;;;;;;;1.50;1.27;;;;;;;30.46;37.86;99782.00;5105754;28;20046;-80
2022/06/25 13:43:30;;;;;;;1.77;1.23;;;;;;;29.91;36.70;99782.28;5105727;28;20048;-79
2022/06/25 13:45:56;;;;;;;1.48;1.00;;;;;;;30.08;39.60;99771.44;5104946;28;20043;-82
2022/06/25 13:48:21;;;;;;;1.27;0.90;;;;;;;29.56;38.61;99783.97;5100104;28;20048;-81
2022/06/25 13:50:46;;;;;;;1.58;1.33;;;;;;;29.86;39.28;99779.66;5102073;28;20131;-80
2022/06/25 13:53:12;;;;;;;1.45;1.10;;;;;;;28.58;39.05;99778.91;5101556;28;20063;-80
2022/06/25 13:55:37;;;;;;;1.80;1.20;;;;;;;29.33;39.65;99772.94;5107353;28;20127;-81
2022/06/25 13:58:03;;;;;;;1.45;1.17;;;;;;;29.03;41.27;99776.38;5109063;28;20032;-82
2022/06/25 14:00:29;;;;;;;2.47;1.23;;;;;;;28.91;40.91;99771.38;5107261;28;20048;-81
2022/06/25 14:02:54;;;;;;;1.40;1.20;;;;;;;29.02;40.66;99772.00;5105314;28;20047;-80
2022/06/25 14:05:20;;;;;;;1.77;1.10;;;;;;;29.39;39.38;99773.63;5102623;28;20050;-81
2022/06/25 14:07:45;;;;;;;3.13;1.27;;;;;;;29.37;39.67;99773.94;5085497;28;20039;-81
2022/06/25 14:10:12;;;;;;;1.23;1.13;;;;;;;29.36;40.27;99775.06;5105268;28;20036;-82
2022/06/25 14:12:38;;;;;;;2.58;1.38;;;;;;;29.27;41.14;99778.84;5107338;28;20032;-81
2022/06/25 14:15:04;;;;;;;1.58;1.20;;;;;;;28.84;42.43;99779.19;5108587;28;20615;-82
2022/06/25 14:17:29;;;;;;;1.80;1.13;;;;;;;28.91;41.36;99774.13;5105717;28;20062;-81
2022/06/25 14:19:55;;;;;;;2.70;0.95;;;;;;;28.87;40.87;99775.84;5111610;28;20135;-82
2022/06/25 14:22:20;;;;;;;2.13;1.27;;;;;;;28.78;40.85;99764.78;5109233;28;20063;-82
2022/06/25 14:27:30;;;;;;;2.30;1.30;;;;;;;28.73;41.82;99753.94;5095368;28;20032;-83
2022/06/25 14:29:56;;;;;;;1.42;1.10;;;;;;;28.56;41.49;99754.56;5095485;28;20024;-81
2022/06/25 14:32:22;;;;;;;2.78;1.33;;;;;;;28.45;41.84;99746.84;5095506;28;20032;-81
2022/06/25 14:34:47;;;;;;;5.15;1.90;;;;;;;28.79;42.52;99747.22;5096209;28;20374;-81
2022/06/25 14:42:40;;;;;;;1.10;1.00;;;;;;;28.95;41.14;99745.00;5097861;28;20032;-82
2022/06/25 14:45:06;;;;;;;3.00;1.30;;;;;;;28.56;40.62;99745.50;5098720;28;20127;-83
2022/06/25 14:47:31;;;;;;;2.28;1.20;;;;;;;28.60;41.47;99747.34;5104319;28;20146;-81
2022/06/25 14:49:57;;;;;;;1.90;1.00;;;;;;;28.41;40.87;99740.34;5107956;28;20125;-82
2022/06/25 14:52:23;;;;;;;0.93;0.90;;;;;;;28.22;40.27;99737.63;5098536;28;20097;-82
2022/06/25 14:54:48;;;;;;;3.00;1.58;;;;;;;28.27;41.63;99748.50;5080525;28;20092;-81
2022/06/25 14:57:13;;;;;;;1.95;1.10;;;;;;;28.38;42.18;99739.03;5101645;28;20046;-81
2022/06/25 14:59:39;;;;;;;1.73;1.33;;;;;;;28.37;42.60;99746.44;5099235;28;20444;-82
2022/06/25 15:02:05;;;;;;;2.08;1.63;;;;;;;28.60;41.29;99741.84;5103436;28;20056;-83
2022/06/25 15:04:30;;;;;;;2.42;1.55;;;;;;;28.71;41.63;99747.13;5105867;28;20036;-82
2022/06/25 15:06:55;;;;;;;2.08;1.70;;;;;;;28.71;40.62;99737.00;5106756;28;20047;-83
2022/06/25 15:09:21;;;;;;;2.92;2.63;;;;;;;28.78;40.68;99734.63;5100937;28;20040;-84
2022/06/25 15:11:46;;;;;;;1.58;1.10;;;;;;;28.83;38.91;99733.72;5094241;28;20063;-81
2022/06/25 15:14:11;;;;;;;2.33;1.40;;;;;;;28.61;40.30;99738.00;5097336;28;20036;-82
2022/06/25 15:16:37;;;;;;;2.10;1.58;;;;;;;28.48;40.27;99724.31;5095803;28;20047;-83
2022/06/25 15:19:02;;;;;;;2.33;1.33;;;;;;;28.58;38.86;99729.59;5094608;28;20036;-82
2022/06/25 15:21:28;;;;;;;1.70;1.30;;;;;;;28.46;40.17;99734.75;5098194;28;20036;-83
2022/06/25 15:23:53;;;;;;;1.45;1.20;;;;;;;28.03;41.26;99722.09;5095449;28;20032;-83
2022/06/25 15:26:19;;;;;;;1.63;1.38;;;;;;;28.17;41.16;99713.94;5096263;28;20040;-81
2022/06/25 15:28:44;;;;;;;1.85;1.63;;;;;;;28.04;40.31;99714.72;5101725;28;20487;-81
2022/06/25 15:31:10;;;;;;;2.35;1.90;;;;;;;28.09;40.37;99718.16;5093913;28;20032;-81
2022/06/25 15:33:35;;;;;;;1.77;1.27;;;;;;;27.95;41.12;99719.25;5094074;28;20032;-81
2022/06/25 15:36:01;;;;;;;3.63;1.80;;;;;;;28.02;42.08;99719.66;5094599;28;20031;-83
2022/06/25 15:38:29;;;;;;;1.92;1.20;;;;;;;28.06;42.77;99707.81;5094565;28;20097;-84
2022/06/25 15:40:56;;;;;;;1.83;1.35;;;;;;;27.80;42.71;99710.19;5095351;28;20028;-83
2022/06/25 15:43:22;;;;;;;2.22;1.23;;;;;;;27.97;44.04;99712.34;5095107;28;20035;-83
2022/06/25 15:45:48;;;;;;;2.45;1.73;;;;;;;27.94;43.77;99704.75;5096647;28;20063;-86
2022/06/25 15:48:13;;;;;;;1.20;1.10;;;;;;;27.99;43.02;99706.59;5094396;28;20370;-82
2022/06/25 15:50:39;;;;;;;5.07;2.35;;;;;;;28.08;42.34;99710.25;5093759;28;20117;-81
2022/06/25 15:53:08;;;;;;;2.38;1.38;;;;;;;27.81;42.88;99702.81;5094354;28;20047;-82
2022/06/25 15:55:34;;;;;;;2.10;1.40;;;;;;;28.05;43.62;99700.72;5094368;28;20058;-83
2022/06/25 15:58:00;;;;;;;1.97;1.53;;;;;;;28.09;42.41;99693.50;5096271;28;20548;-82
2022/06/25 16:00:26;;;;;;;2.15;1.63;;;;;;;28.20;42.46;99696.06;5098828;28;20074;-80
2022/06/25 16:02:52;;;;;;;3.28;1.40;;;;;;;27.93;42.26;99691.38;5099099;28;20401;-81
2022/06/25 16:05:17;;;;;;;2.22;1.40;;;;;;;27.97;42.02;99686.91;5097380;28;20040;-80
2022/06/25 16:07:42;;;;;;;2.10;1.08;;;;;;;28.10;41.70;99692.44;5093764;28;20106;-80
2022/06/25 16:10:08;;;;;;;1.10;1.00;;;;;;;27.96;41.91;99680.63;5095566;28;20092;-81
2022/06/25 16:12:35;;;;;;;1.50;1.30;;;;;;;28.05;40.91;99680.75;5095076;28;20123;-82
2022/06/25 16:15:01;;;;;;;1.83;1.30;;;;;;;28.02;41.35;99670.41;5096968;28;20036;-82